createdAt,value
2023-05-06T00:00:52.850Z,12.15
2023-05-06T00:03:20.926Z,12.06
2023-05-06T00:05:49.262Z,12.00
2023-05-06T00:08:17.211Z,11.98
2023-05-06T00:10:45.191Z,11.95
2023-05-06T00:13:13.168Z,11.90
2023-05-06T00:15:42.503Z,11.91
2023-05-06T00:18:10.470Z,11.88
2023-05-06T00:20:38.438Z,11.89
2023-05-06T00:23:06.382Z,11.74
2023-05-06T00:25:34.320Z,11.78
2023-05-06T00:28:02.220Z,11.77
2023-05-06T00:30:31.301Z,11.73
2023-05-06T00:33:00.758Z,11.68
2023-05-06T00:35:28.756Z,11.64
2023-05-06T00:37:57.970Z,11.60
2023-05-06T00:40:26.029Z,11.55
2023-05-06T00:42:53.967Z,11.50
2023-05-06T00:45:21.894Z,11.46
2023-05-06T00:47:49.837Z,11.45
2023-05-06T00:50:19.341Z,11.43
2023-05-06T00:52:47.234Z,11.40
2023-05-06T00:55:15.490Z,11.39
2023-05-06T00:57:43.438Z,11.35
2023-05-06T01:00:12.599Z,11.34
2023-05-06T01:02:47.010Z,11.27
2023-05-06T01:05:16.070Z,11.24
2023-05-06T01:07:47.691Z,11.17
2023-05-06T01:10:20.469Z,11.12
2023-05-06T01:12:51.664Z,11.12
2023-05-06T01:15:22.898Z,11.11
2023-05-06T01:17:51.398Z,11.13
2023-05-06T01:20:21.090Z,11.13
2023-05-06T01:22:50.733Z,11.07
2023-05-06T01:25:23.653Z,11.03
2023-05-06T01:27:51.597Z,11.00
2023-05-06T01:30:19.853Z,10.94
2023-05-06T01:32:54.866Z,10.89
2023-05-06T01:35:37.141Z,10.86
2023-05-06T01:38:08.321Z,10.81
2023-05-06T01:40:37.642Z,10.82
2023-05-06T01:43:06.140Z,10.82
2023-05-06T01:45:35.276Z,10.84
2023-05-06T01:48:03.283Z,10.82
2023-05-06T01:50:31.299Z,10.83
2023-05-06T01:53:00.136Z,10.82
2023-05-06T01:55:28.170Z,10.83
2023-05-06T01:57:57.685Z,10.80
2023-05-06T02:00:26.435Z,10.78
2023-05-06T02:02:54.578Z,10.74
2023-05-06T02:05:22.576Z,10.66
2023-05-06T02:07:50.526Z,10.65
2023-05-06T02:10:19.224Z,10.53
2023-05-06T02:12:47.285Z,10.39
2023-05-06T02:15:16.852Z,10.37
2023-05-06T02:17:44.835Z,10.30
2023-05-06T02:20:12.919Z,10.21
2023-05-06T02:22:40.866Z,10.17
2023-05-06T02:25:10.082Z,10.13
2023-05-06T02:27:38.256Z,10.03
2023-05-06T02:30:07.465Z,10.01
2023-05-06T02:32:37.211Z,9.92
2023-05-06T02:35:05.856Z,9.97
2023-05-06T02:37:33.761Z,9.94
2023-05-06T02:40:01.740Z,9.91
2023-05-06T02:42:29.621Z,9.97
2023-05-06T02:44:57.603Z,9.92
2023-05-06T02:47:25.604Z,9.97
2023-05-06T02:49:54.900Z,9.99
2023-05-06T02:52:22.854Z,10.07
2023-05-06T02:54:51.023Z,10.09
2023-05-06T02:57:18.929Z,10.14
2023-05-06T02:59:46.910Z,10.17
2023-05-06T03:02:14.844Z,10.17
2023-05-06T03:04:42.934Z,10.17
2023-05-06T03:07:12.683Z,10.18
2023-05-06T03:09:40.713Z,10.21
2023-05-06T03:12:08.624Z,10.22
2023-05-06T03:14:36.540Z,10.24
2023-05-06T03:17:04.636Z,10.18
2023-05-06T03:19:32.533Z,10.25
2023-05-06T03:22:00.464Z,10.29
2023-05-06T03:24:29.787Z,10.38
2023-05-06T03:26:58.531Z,10.44
2023-05-06T03:29:26.499Z,10.53
2023-05-06T03:31:56.753Z,10.59
2023-05-06T03:34:24.771Z,10.70
2023-05-06T03:36:52.673Z,10.70
2023-05-06T03:39:20.639Z,10.78
2023-05-06T03:41:49.900Z,10.86
2023-05-06T03:44:17.936Z,11.01
2023-05-06T03:46:45.896Z,11.12
2023-05-06T03:49:13.904Z,11.19
2023-05-06T03:51:41.788Z,11.33
2023-05-06T03:54:09.765Z,11.52
2023-05-06T03:56:37.690Z,11.66
2023-05-06T03:59:06.966Z,11.84
2023-05-06T04:01:35.385Z,12.05
2023-05-06T04:04:03.354Z,12.21
2023-05-06T04:06:31.335Z,12.42
2023-05-06T04:08:59.246Z,12.63
2023-05-06T04:11:29.583Z,12.81
2023-05-06T04:13:57.758Z,13.05
2023-05-06T04:16:27.103Z,13.23
2023-05-06T04:18:55.441Z,13.51
2023-05-06T04:21:23.411Z,13.77
2023-05-06T04:23:51.389Z,14.36
2023-05-06T04:26:19.370Z,16.05
2023-05-06T04:28:47.308Z,17.94
2023-05-06T04:31:15.627Z,19.57
2023-05-06T04:33:44.946Z,21.09
2023-05-06T04:36:13.028Z,22.03
2023-05-06T04:38:40.962Z,23.29
2023-05-06T04:41:13.778Z,23.90
2023-05-06T04:43:44.572Z,24.74
2023-05-06T04:46:22.051Z,24.74
2023-05-06T04:49:01.315Z,25.25
2023-05-06T04:51:32.328Z,24.79
2023-05-06T04:54:06.284Z,25.11
2023-05-06T04:56:42.299Z,25.32
2023-05-06T04:59:12.271Z,25.27
2023-05-06T05:01:40.611Z,25.87
2023-05-06T05:04:13.113Z,26.12
2023-05-06T05:06:44.242Z,25.81
2023-05-06T05:09:14.081Z,25.89
2023-05-06T05:11:43.240Z,25.53
2023-05-06T05:14:15.554Z,24.71
2023-05-06T05:16:47.542Z,23.55
2023-05-06T05:19:21.619Z,22.51
2023-05-06T05:21:49.853Z,21.96
2023-05-06T05:24:18.057Z,21.79
2023-05-06T05:26:53.056Z,21.62
2023-05-06T05:29:21.019Z,21.34
2023-05-06T05:31:56.673Z,21.13
2023-05-06T05:34:28.016Z,21.36
2023-05-06T05:36:59.854Z,22.31
2023-05-06T05:39:29.934Z,23.84
2023-05-06T05:42:03.756Z,24.74
2023-05-06T05:44:33.470Z,24.44
2023-05-06T05:47:05.703Z,23.84
2023-05-06T05:49:36.801Z,23.61
2023-05-06T05:52:09.915Z,24.58
2023-05-06T05:54:42.097Z,26.13
2023-05-06T05:57:13.934Z,27.15
2023-05-06T05:59:43.644Z,28.24
2023-05-06T06:02:14.626Z,29.58
2023-05-06T06:04:44.385Z,29.25
2023-05-06T06:07:16.418Z,29.18
2023-05-06T06:09:49.105Z,28.80
2023-05-06T06:12:18.127Z,29.07
2023-05-06T06:14:48.862Z,30.00
2023-05-06T06:17:19.223Z,30.75
2023-05-06T06:19:51.525Z,31.17
2023-05-06T06:22:22.241Z,32.06
2023-05-06T06:24:53.860Z,32.94
2023-05-06T06:27:24.536Z,32.23
2023-05-06T06:30:03.138Z,30.21
2023-05-06T06:32:33.515Z,28.21
2023-05-06T06:35:04.227Z,27.19
2023-05-06T06:37:34.955Z,29.35
2023-05-06T06:40:18.533Z,30.53
2023-05-06T06:42:51.653Z,30.65
2023-05-06T06:45:29.689Z,31.46
2023-05-06T06:48:03.611Z,32.78
2023-05-06T06:50:40.648Z,32.98
2023-05-06T06:53:12.883Z,31.84
2023-05-06T06:55:47.434Z,31.90
2023-05-06T06:58:23.909Z,30.68
2023-05-06T07:00:51.900Z,31.07
2023-05-06T07:03:27.544Z,31.11
2023-05-06T07:05:58.215Z,31.23
2023-05-06T07:08:26.412Z,30.75
2023-05-06T07:10:56.686Z,30.08
2023-05-06T07:13:27.722Z,30.92
2023-05-06T07:16:05.838Z,31.39
2023-05-06T07:18:37.680Z,31.06
2023-05-06T07:21:09.690Z,30.34
2023-05-06T07:23:37.706Z,30.34
2023-05-06T07:26:07.836Z,29.56
2023-05-06T07:28:40.899Z,28.30
2023-05-06T07:31:13.012Z,27.69
2023-05-06T07:33:41.196Z,26.33
2023-05-06T07:36:16.948Z,26.22
2023-05-06T07:38:47.668Z,26.48
2023-05-06T07:41:20.028Z,26.45
2023-05-06T07:43:48.113Z,26.61
2023-05-06T07:46:20.280Z,26.52
2023-05-06T07:48:50.527Z,26.34
2023-05-06T07:51:19.911Z,26.24
2023-05-06T07:53:59.049Z,26.08
2023-05-06T07:56:35.693Z,26.16
2023-05-06T07:59:08.127Z,25.71
2023-05-06T08:01:38.781Z,25.54
2023-05-06T08:04:08.609Z,25.51
2023-05-06T08:06:40.053Z,25.76
2023-05-06T08:09:17.034Z,26.09
2023-05-06T08:11:56.753Z,26.01
2023-05-06T08:14:27.016Z,25.65
2023-05-06T08:16:57.395Z,25.87
2023-05-06T08:19:29.749Z,25.15
2023-05-06T08:22:02.408Z,24.92
2023-05-06T08:24:33.956Z,25.15
2023-05-06T08:27:04.714Z,24.67
2023-05-06T08:29:35.979Z,24.81
2023-05-06T08:32:17.817Z,25.21
2023-05-06T08:34:49.794Z,25.16
2023-05-06T08:37:20.720Z,24.55
2023-05-06T08:39:51.108Z,24.44
2023-05-06T08:42:21.065Z,24.39
2023-05-06T08:44:53.891Z,24.21
2023-05-06T08:47:23.403Z,24.05
2023-05-06T08:50:01.412Z,24.21
2023-05-06T08:52:38.986Z,24.39
2023-05-06T08:55:08.256Z,24.38
2023-05-06T08:57:37.818Z,24.74
2023-05-06T09:00:10.956Z,25.08
2023-05-06T09:02:43.320Z,25.27
2023-05-06T09:05:14.051Z,25.44
2023-05-06T09:07:45.743Z,25.68
2023-05-06T09:10:19.171Z,25.88
2023-05-06T09:12:54.631Z,26.02
2023-05-06T09:15:41.574Z,26.27
2023-05-06T09:18:09.671Z,26.13
2023-05-06T09:20:41.199Z,26.01
2023-05-06T09:23:14.680Z,26.12
2023-05-06T09:25:44.411Z,26.61
2023-05-06T09:28:19.762Z,26.70
2023-05-06T09:30:50.606Z,26.72
2023-05-06T09:33:20.321Z,26.80
2023-05-06T09:35:53.468Z,26.65
2023-05-06T09:38:26.694Z,26.39
2023-05-06T09:40:54.670Z,26.59
2023-05-06T09:43:26.329Z,26.35
2023-05-06T09:45:59.834Z,26.44
2023-05-06T09:48:30.255Z,25.83
2023-05-06T09:51:01.681Z,26.16
2023-05-06T09:53:33.035Z,25.93
2023-05-06T09:56:06.827Z,25.75
2023-05-06T09:58:38.583Z,25.69
2023-05-06T10:01:19.229Z,25.48
2023-05-06T10:03:54.317Z,25.39
2023-05-06T10:06:25.603Z,25.03
2023-05-06T10:08:58.563Z,25.05
2023-05-06T10:11:31.880Z,25.13
2023-05-06T10:14:05.496Z,25.14
2023-05-06T10:16:38.448Z,25.44
2023-05-06T10:19:11.186Z,26.33
2023-05-06T10:21:44.657Z,26.83
2023-05-06T10:24:14.011Z,26.66
2023-05-06T10:26:42.440Z,26.72
2023-05-06T10:29:15.144Z,26.75
2023-05-06T10:31:49.661Z,26.44
2023-05-06T10:34:17.701Z,26.09
2023-05-06T10:36:54.451Z,25.63
2023-05-06T10:39:28.340Z,25.23
2023-05-06T10:41:57.608Z,25.03
2023-05-06T10:44:59.553Z,24.96
2023-05-06T10:47:28.756Z,24.84
2023-05-06T10:50:30.748Z,24.43
2023-05-06T10:53:02.068Z,24.48
2023-05-06T10:55:40.806Z,24.48
2023-05-06T10:58:16.046Z,24.56
2023-05-06T11:00:48.052Z,24.86
2023-05-06T11:03:18.938Z,24.99
2023-05-06T11:05:52.882Z,24.74
2023-05-06T11:08:27.245Z,24.77
2023-05-06T11:11:00.814Z,24.93
2023-05-06T11:13:29.762Z,24.93
2023-05-06T11:15:59.176Z,24.80
2023-05-06T11:18:43.314Z,24.62
2023-05-06T11:21:45.924Z,24.54
2023-05-06T11:24:15.928Z,24.78
2023-05-06T11:26:45.627Z,25.00
2023-05-06T11:29:17.103Z,25.30
2023-05-06T11:31:47.364Z,25.51
2023-05-06T11:34:20.757Z,25.58
2023-05-06T11:37:05.661Z,25.50
2023-05-06T11:39:41.270Z,25.39
2023-05-06T11:42:15.533Z,25.41
2023-05-06T11:44:57.457Z,25.56
2023-05-06T11:47:30.105Z,25.69
2023-05-06T11:50:06.448Z,25.68
2023-05-06T11:52:46.814Z,25.57
2023-05-06T11:55:17.687Z,25.48
2023-05-06T11:57:50.036Z,24.93
2023-05-06T12:00:19.021Z,24.88
2023-05-06T12:02:48.531Z,24.70
2023-05-06T12:05:20.925Z,24.34
2023-05-06T12:07:51.056Z,24.23
2023-05-06T12:10:25.233Z,24.41
2023-05-06T12:12:57.442Z,24.61
2023-05-06T12:15:32.640Z,24.48
2023-05-06T12:18:00.657Z,24.22
2023-05-06T12:20:35.135Z,24.24
2023-05-06T12:23:11.148Z,24.47
2023-05-06T12:25:42.000Z,24.55
2023-05-06T12:28:19.292Z,24.95
2023-05-06T12:30:56.372Z,25.01
2023-05-06T12:33:27.139Z,24.88
2023-05-06T12:36:09.537Z,24.90
2023-05-06T12:38:38.655Z,25.55
2023-05-06T12:41:10.286Z,26.22
2023-05-06T12:43:42.676Z,28.30
2023-05-06T12:46:14.780Z,28.79
2023-05-06T12:48:44.971Z,28.95
2023-05-06T12:51:21.320Z,29.72
2023-05-06T12:53:53.828Z,31.07
2023-05-06T12:56:21.906Z,31.60
2023-05-06T12:59:08.346Z,33.26
2023-05-06T13:01:39.188Z,33.20
2023-05-06T13:04:13.335Z,34.04
2023-05-06T13:06:42.944Z,33.30
2023-05-06T13:09:15.273Z,31.48
2023-05-06T13:11:46.440Z,29.96
2023-05-06T13:14:17.948Z,28.25
2023-05-06T13:16:50.800Z,26.86
2023-05-06T13:19:32.766Z,25.83
2023-05-06T13:22:08.597Z,24.91
2023-05-06T13:24:36.628Z,24.26
2023-05-06T13:27:21.638Z,23.80
2023-05-06T13:29:54.061Z,23.47
2023-05-06T13:32:25.604Z,23.37
2023-05-06T13:34:55.206Z,23.41
2023-05-06T13:37:27.078Z,24.74
2023-05-06T13:39:57.038Z,27.09
2023-05-06T13:42:27.755Z,29.47
2023-05-06T13:44:59.838Z,30.98
2023-05-06T13:47:32.861Z,32.31
2023-05-06T13:50:00.948Z,32.41
2023-05-06T13:52:31.824Z,32.07
2023-05-06T13:55:02.447Z,30.69
2023-05-06T13:57:32.374Z,29.46
2023-05-06T14:00:04.234Z,27.69
2023-05-06T14:02:32.435Z,26.74
2023-05-06T14:05:02.140Z,26.06
2023-05-06T14:07:34.342Z,25.50
2023-05-06T14:10:02.420Z,25.36
2023-05-06T14:12:30.985Z,25.40
2023-05-06T14:15:03.415Z,25.36
2023-05-06T14:17:32.922Z,25.45
2023-05-06T14:20:06.657Z,25.52
2023-05-06T14:22:34.706Z,25.42
2023-05-06T14:25:02.732Z,25.31
2023-05-06T14:27:31.094Z,25.19
2023-05-06T14:29:59.127Z,25.06
2023-05-06T14:32:31.562Z,24.95
2023-05-06T14:35:04.144Z,24.83
2023-05-06T14:37:37.584Z,24.54
2023-05-06T14:40:09.464Z,24.29
2023-05-06T14:42:42.740Z,24.07
2023-05-06T14:45:14.558Z,23.84
2023-05-06T14:47:42.682Z,23.67
2023-05-06T14:50:18.558Z,23.57
2023-05-06T14:52:49.644Z,23.43
2023-05-06T14:55:18.081Z,23.38
2023-05-06T14:57:46.132Z,23.40
2023-05-06T15:00:17.625Z,23.35
2023-05-06T15:02:51.199Z,23.27
2023-05-06T15:05:22.034Z,23.19
2023-05-06T15:07:49.992Z,23.12
2023-05-06T15:10:18.171Z,23.12
2023-05-06T15:12:46.116Z,23.06
2023-05-06T15:15:14.217Z,22.92
2023-05-06T15:17:42.440Z,22.78
2023-05-06T15:20:11.215Z,22.56
2023-05-06T15:22:40.676Z,22.25
2023-05-06T15:25:14.295Z,21.97
2023-05-06T15:27:47.523Z,21.78
2023-05-06T15:30:15.925Z,21.21
2023-05-06T15:32:43.900Z,20.75
2023-05-06T15:35:12.100Z,20.47
2023-05-06T15:37:41.650Z,20.19
2023-05-06T15:40:12.143Z,20.13
2023-05-06T15:42:40.313Z,20.15
2023-05-06T15:45:09.056Z,20.27
2023-05-06T15:47:37.021Z,20.46
2023-05-06T15:50:16.570Z,20.63
2023-05-06T15:52:50.401Z,20.78
2023-05-06T15:55:19.506Z,20.92
2023-05-06T15:57:47.477Z,21.05
2023-05-06T16:00:16.608Z,21.10
2023-05-06T16:02:44.656Z,21.21
2023-05-06T16:05:12.630Z,21.29
2023-05-06T16:07:40.576Z,21.36
2023-05-06T16:10:10.453Z,21.37
2023-05-06T16:12:38.975Z,21.43
2023-05-06T16:15:08.369Z,21.47
2023-05-06T16:17:37.613Z,21.49
2023-05-06T16:20:06.892Z,21.42
2023-05-06T16:22:34.839Z,21.41
2023-05-06T16:25:02.900Z,21.38
2023-05-06T16:27:32.190Z,21.33
2023-05-06T16:30:00.192Z,21.23
2023-05-06T16:32:28.138Z,21.10
2023-05-06T16:34:56.032Z,21.02
2023-05-06T16:37:23.931Z,20.94
2023-05-06T16:39:51.887Z,20.87
2023-05-06T16:42:19.792Z,20.80
2023-05-06T16:44:49.154Z,20.79
2023-05-06T16:47:17.151Z,20.82
2023-05-06T16:49:45.184Z,20.77
2023-05-06T16:52:13.112Z,20.73
2023-05-06T16:54:41.049Z,20.71
2023-05-06T16:57:09.008Z,20.67
2023-05-06T16:59:36.965Z,20.62
2023-05-06T17:02:06.329Z,20.59
2023-05-06T17:04:34.337Z,20.57
2023-05-06T17:07:02.319Z,20.52
2023-05-06T17:09:30.509Z,20.39
2023-05-06T17:11:58.427Z,20.38
2023-05-06T17:14:26.533Z,20.29
2023-05-06T17:16:54.501Z,20.22
2023-05-06T17:19:23.868Z,20.19
2023-05-06T17:21:51.773Z,20.13
2023-05-06T17:24:19.746Z,20.08
2023-05-06T17:26:48.160Z,20.00
2023-05-06T17:29:16.123Z,19.92
2023-05-06T17:31:44.029Z,19.78
2023-05-06T17:34:11.992Z,19.68
2023-05-06T17:36:41.342Z,19.55
2023-05-06T17:39:09.582Z,19.51
2023-05-06T17:41:37.582Z,19.30
2023-05-06T17:44:06.723Z,19.30
2023-05-06T17:46:34.744Z,19.24
2023-05-06T17:49:02.742Z,19.11
2023-05-06T17:51:30.718Z,19.04
2023-05-06T17:54:00.177Z,18.99
2023-05-06T17:56:28.155Z,18.83
2023-05-06T17:58:56.593Z,18.75
2023-05-06T18:01:24.653Z,18.59
2023-05-06T18:03:52.780Z,18.44
2023-05-06T18:06:20.794Z,18.29
2023-05-06T18:08:48.747Z,18.14
2023-05-06T18:11:18.407Z,18.01
2023-05-06T18:13:46.372Z,17.85
2023-05-06T18:16:14.329Z,17.75
2023-05-06T18:18:42.279Z,17.69
2023-05-06T18:21:10.218Z,17.55
2023-05-06T18:23:38.174Z,17.39
2023-05-06T18:26:06.908Z,17.24
2023-05-06T18:28:37.130Z,17.10
2023-05-06T18:31:05.145Z,16.99
2023-05-06T18:33:33.067Z,16.88
2023-05-06T18:36:00.990Z,16.60
2023-05-06T18:38:28.924Z,16.51
2023-05-06T18:40:56.836Z,16.45
2023-05-06T18:43:24.776Z,16.36
2023-05-06T18:45:54.722Z,16.36
2023-05-06T18:48:22.638Z,16.24
2023-05-06T18:50:50.999Z,16.26
2023-05-06T18:53:18.973Z,16.19
2023-05-06T18:55:46.899Z,16.17
2023-05-06T18:58:16.250Z,15.98
2023-05-06T19:00:44.668Z,16.09
2023-05-06T19:03:13.980Z,16.00
2023-05-06T19:05:41.901Z,15.92
2023-05-06T19:08:10.354Z,15.85
2023-05-06T19:10:38.294Z,15.73
2023-05-06T19:13:07.575Z,15.68
2023-05-06T19:15:35.864Z,15.68
2023-05-06T19:18:04.030Z,15.69
2023-05-06T19:20:33.355Z,15.61
2023-05-06T19:23:03.484Z,15.57
2023-05-06T19:25:31.463Z,15.52
2023-05-06T19:27:59.418Z,15.47
2023-05-06T19:30:27.702Z,15.34
2023-05-06T19:32:57.402Z,15.38
2023-05-06T19:35:25.528Z,15.46
2023-05-06T19:37:54.816Z,15.43
2023-05-06T19:40:23.038Z,15.47
2023-05-06T19:42:50.972Z,15.56
2023-05-06T19:45:19.491Z,15.59
2023-05-06T19:47:47.677Z,15.61
2023-05-06T19:50:15.736Z,15.71
2023-05-06T19:52:43.653Z,15.76
2023-05-06T19:55:13.120Z,15.81
2023-05-06T19:57:41.295Z,15.79
2023-05-06T20:00:11.873Z,15.85
2023-05-06T20:02:40.189Z,15.94
2023-05-06T20:05:08.913Z,15.95
2023-05-06T20:07:38.613Z,15.95
2023-05-06T20:10:07.614Z,15.94
2023-05-06T20:12:37.021Z,15.94
2023-05-06T20:15:05.627Z,15.96
2023-05-06T20:17:34.457Z,15.92
2023-05-06T20:20:09.483Z,15.94
2023-05-06T20:22:37.918Z,15.94
2023-05-06T20:25:09.952Z,15.94
2023-05-06T20:27:39.461Z,15.92
2023-05-06T20:30:09.695Z,15.92
2023-05-06T20:32:37.895Z,15.87
2023-05-06T20:35:06.793Z,15.79
2023-05-06T20:37:35.457Z,15.85
2023-05-06T20:40:04.848Z,15.81
2023-05-06T20:42:32.965Z,15.76
2023-05-06T20:45:02.290Z,15.68
2023-05-06T20:47:30.265Z,15.59
2023-05-06T20:49:58.322Z,15.52
2023-05-06T20:52:26.653Z,15.40
2023-05-06T20:54:54.750Z,15.33
2023-05-06T20:57:22.934Z,15.22
2023-05-06T20:59:52.497Z,15.17
2023-05-06T21:02:22.034Z,15.02
2023-05-06T21:04:50.110Z,15.00
2023-05-06T21:07:18.107Z,14.94
2023-05-06T21:09:46.406Z,14.83
2023-05-06T21:12:14.397Z,14.76
2023-05-06T21:14:42.334Z,14.74
2023-05-06T21:17:10.575Z,14.70
2023-05-06T21:19:40.042Z,14.69
2023-05-06T21:22:10.046Z,14.67
2023-05-06T21:24:37.952Z,14.60
2023-05-06T21:27:05.937Z,14.51
2023-05-06T21:29:33.854Z,14.48
2023-05-06T21:32:01.781Z,14.41
2023-05-06T21:34:29.726Z,14.36
2023-05-06T21:36:59.044Z,14.28
2023-05-06T21:39:26.971Z,14.16
2023-05-06T21:41:54.900Z,14.05
2023-05-06T21:44:22.808Z,13.96
2023-05-06T21:46:50.837Z,13.89
2023-05-06T21:49:19.536Z,13.80
2023-05-06T21:51:47.505Z,13.72
2023-05-06T21:54:17.397Z,13.60
2023-05-06T21:56:45.503Z,13.49
2023-05-06T21:59:13.433Z,13.42
2023-05-06T22:01:41.422Z,13.38
2023-05-06T22:04:13.064Z,13.35
2023-05-06T22:06:41.578Z,13.31
2023-05-06T22:09:10.008Z,13.27
2023-05-06T22:11:39.321Z,13.23
2023-05-06T22:14:07.296Z,13.12
2023-05-06T22:16:37.764Z,13.02
2023-05-06T22:19:06.722Z,12.86
2023-05-06T22:21:34.817Z,12.77
2023-05-06T22:24:02.768Z,12.64
2023-05-06T22:26:32.857Z,12.64
2023-05-06T22:29:02.203Z,12.58
2023-05-06T22:31:30.170Z,12.56
2023-05-06T22:34:03.461Z,12.52
2023-05-06T22:36:33.083Z,12.58
2023-05-06T22:39:01.079Z,12.57
2023-05-06T22:41:29.000Z,12.52
2023-05-06T22:43:57.298Z,12.50
2023-05-06T22:46:26.816Z,12.41
2023-05-06T22:48:54.854Z,12.37
2023-05-06T22:51:22.811Z,12.37
2023-05-06T22:53:50.760Z,12.37
2023-05-06T22:56:20.097Z,12.23
2023-05-06T22:58:48.060Z,12.22
2023-05-06T23:01:16.015Z,12.18
2023-05-06T23:03:45.429Z,12.17
2023-05-06T23:06:13.386Z,12.09
2023-05-06T23:09:00.951Z,12.05
2023-05-06T23:11:34.119Z,11.99
2023-05-06T23:14:09.378Z,11.84
2023-05-06T23:16:40.906Z,11.83
2023-05-06T23:19:10.777Z,11.78
2023-05-06T23:21:41.554Z,11.77
2023-05-06T23:24:17.146Z,11.72
2023-05-06T23:26:50.691Z,11.75
2023-05-06T23:29:35.838Z,11.74
2023-05-06T23:32:08.903Z,11.72
2023-05-06T23:34:42.722Z,11.68
2023-05-06T23:37:28.811Z,11.64
2023-05-06T23:39:58.608Z,11.60
2023-05-06T23:42:35.795Z,11.59
2023-05-06T23:45:05.952Z,11.52
2023-05-06T23:47:38.152Z,11.48
2023-05-06T23:50:14.675Z,11.37
2023-05-06T23:52:42.873Z,11.31
2023-05-06T23:55:15.331Z,11.26
2023-05-06T23:57:45.783Z,11.25
